createdAt,value
2022-11-02T00:01:20.924Z,100850.47
2022-11-02T00:03:52.279Z,100847.84
2022-11-02T00:06:23.626Z,100855.75
2022-11-02T00:08:54.879Z,100848.63
2022-11-02T00:11:26.207Z,100845.97
2022-11-02T00:13:57.613Z,100834.50
2022-11-02T00:16:29.067Z,100838.97
2022-11-02T00:19:01.483Z,100843.44
2022-11-02T00:21:33.098Z,100837.25
2022-11-02T00:24:05.863Z,100825.78
2022-11-02T00:26:37.276Z,100826.59
2022-11-02T00:29:09.191Z,100825.72
2022-11-02T00:31:40.478Z,100817.78
2022-11-02T00:34:12.073Z,100814.13
2022-11-02T00:36:43.405Z,100817.63
2022-11-02T00:39:14.664Z,100817.56
2022-11-02T00:41:46.124Z,100809.63
2022-11-02T00:44:17.483Z,100808.69
2022-11-02T00:46:48.736Z,100804.28
2022-11-02T00:49:20.757Z,100804.28
2022-11-02T00:51:52.009Z,100805.13
2022-11-02T00:54:26.031Z,100803.38
2022-11-02T00:59:36.146Z,100802.47
2022-11-02T01:02:07.543Z,100797.22
2022-11-02T01:04:38.935Z,100798.13
2022-11-02T01:07:10.202Z,100792.84
2022-11-02T01:09:41.531Z,100792.91
2022-11-02T01:12:12.821Z,100783.19
2022-11-02T01:14:46.410Z,100772.63
2022-11-02T01:17:18.791Z,100788.53
2022-11-02T01:19:51.321Z,100776.19
2022-11-02T01:22:22.604Z,100786.00
2022-11-02T01:24:54.089Z,100768.44
2022-11-02T01:27:25.372Z,100772.88
2022-11-02T01:29:57.111Z,100780.78
2022-11-02T01:32:31.610Z,100776.38
2022-11-02T01:35:03.164Z,100773.72
2022-11-02T01:37:35.102Z,100775.53
2022-11-02T01:40:06.800Z,100765.88
2022-11-02T01:42:38.132Z,100766.75
2022-11-02T01:45:11.524Z,100765.91
2022-11-02T01:47:48.039Z,100730.81
2022-11-02T01:50:23.791Z,100754.47
2022-11-02T01:52:55.291Z,100748.34
2022-11-02T01:55:32.150Z,100753.59
2022-11-02T01:58:08.154Z,100749.13
2022-11-02T02:00:39.972Z,100750.81
2022-11-02T02:03:18.075Z,100748.97
2022-11-02T02:05:56.911Z,100746.16
2022-11-02T02:08:29.420Z,100725.66
2022-11-02T02:11:00.754Z,100733.31
2022-11-02T02:13:32.827Z,100737.56
2022-11-02T02:16:22.233Z,100718.84
2022-11-02T02:18:58.536Z,100730.09
2022-11-02T02:21:51.206Z,100710.44
2022-11-02T02:24:44.462Z,100718.25
2022-11-02T02:27:46.525Z,100732.28
2022-11-02T02:30:18.013Z,100719.03
2022-11-02T02:32:56.715Z,100726.78
2022-11-02T02:35:43.567Z,100716.94
2022-11-02T02:38:22.828Z,100703.75
2022-11-02T02:41:06.236Z,100716.03
2022-11-02T02:43:46.011Z,100694.94
2022-11-02T02:46:25.838Z,100715.19
2022-11-02T02:48:58.229Z,100703.75
2022-11-02T02:51:32.936Z,100709.03
2022-11-02T02:54:07.942Z,100707.19
2022-11-02T02:59:37.451Z,100696.47
2022-11-02T03:02:16.215Z,100691.16
2022-11-02T03:04:47.699Z,100710.47
2022-11-02T03:07:31.209Z,100699.81
2022-11-02T03:10:16.776Z,100697.03
2022-11-02T03:12:53.992Z,100699.66
2022-11-02T03:15:40.426Z,100696.09
2022-11-02T03:18:27.975Z,100700.38
2022-11-02T03:21:37.991Z,100699.44
2022-11-02T03:24:25.876Z,100702.94
2022-11-02T03:27:24.998Z,100688.00
2022-11-02T03:30:05.177Z,100694.13
2022-11-02T03:32:46.482Z,100691.41
2022-11-02T03:35:40.736Z,100690.41
2022-11-02T03:38:32.680Z,100685.97
2022-11-02T03:41:05.886Z,100691.09
2022-11-02T03:43:40.621Z,100688.34
2022-11-02T03:46:14.406Z,100695.38
2022-11-02T03:48:49.160Z,100676.00
2022-11-02T03:51:23.734Z,100688.44
2022-11-02T03:54:01.438Z,100698.28
2022-11-02T03:56:46.095Z,100687.84
2022-11-02T03:59:17.592Z,100701.03
2022-11-02T04:01:51.626Z,100689.59
2022-11-02T04:04:22.961Z,100704.63
2022-11-02T04:06:55.465Z,100710.91
2022-11-02T04:09:26.762Z,100706.66
2022-11-02T04:12:30.407Z,100701.56
2022-11-02T04:15:01.655Z,100708.75
2022-11-02T04:17:51.287Z,100699.22
2022-11-02T04:20:22.558Z,100704.59
2022-11-02T04:23:12.564Z,100721.34
2022-11-02T04:25:44.896Z,100713.44
2022-11-02T04:28:16.141Z,100717.97
2022-11-02T04:30:47.685Z,100715.38
2022-11-02T04:33:34.311Z,100719.84
2022-11-02T04:36:07.333Z,100726.78
2022-11-02T04:38:41.379Z,100722.22
2022-11-02T04:41:34.288Z,100713.28
2022-11-02T04:44:06.260Z,100707.00
2022-11-02T04:46:39.079Z,100712.31
2022-11-02T04:49:11.606Z,100706.13
2022-11-02T04:51:48.788Z,100708.69
2022-11-02T04:54:21.024Z,100713.84
2022-11-02T04:56:52.313Z,100715.53
2022-11-02T04:59:23.565Z,100704.97
2022-11-02T05:01:54.937Z,100710.28
2022-11-02T05:04:26.433Z,100711.91
2022-11-02T05:07:01.480Z,100705.59
2022-11-02T05:09:33.294Z,100711.72
2022-11-02T05:12:05.225Z,100711.72
2022-11-02T05:14:36.577Z,100709.06
2022-11-02T05:17:07.831Z,100703.81
2022-11-02T05:19:39.102Z,100708.88
2022-11-02T05:22:10.442Z,100703.50
2022-11-02T05:24:41.701Z,100702.56
2022-11-02T05:27:13.045Z,100712.34
2022-11-02T05:29:44.384Z,100712.34
2022-11-02T05:32:15.671Z,100716.78
2022-11-02T05:34:46.934Z,100708.84
2022-11-02T05:37:18.406Z,100715.19
2022-11-02T05:39:50.625Z,100713.50
2022-11-02T05:42:22.136Z,100718.94
2022-11-02T05:44:53.411Z,100713.78
2022-11-02T05:47:24.718Z,100725.97
2022-11-02T05:49:56.141Z,100723.16
2022-11-02T05:52:27.397Z,100722.09
2022-11-02T05:54:58.648Z,100721.22
2022-11-02T05:57:30.039Z,100723.72
2022-11-02T06:00:01.536Z,100734.31
2022-11-02T06:02:35.559Z,100727.22
2022-11-02T06:05:07.364Z,100713.97
2022-11-02T06:07:38.750Z,100730.63
2022-11-02T06:10:10.048Z,100732.41
2022-11-02T06:12:41.314Z,100705.91
2022-11-02T06:15:12.661Z,100717.28
2022-11-02T06:17:43.928Z,100713.88
2022-11-02T06:20:15.324Z,100724.72
2022-11-02T06:22:47.234Z,100716.16
2022-11-02T06:25:19.173Z,100720.94
2022-11-02T06:27:56.541Z,100705.50
2022-11-02T06:30:27.818Z,100729.44
2022-11-02T06:33:02.928Z,100732.06
2022-11-02T06:35:35.658Z,100739.16
2022-11-02T06:38:06.927Z,100737.44
2022-11-02T06:40:38.848Z,100719.16
2022-11-02T06:43:16.567Z,100733.28
2022-11-02T06:45:48.566Z,100744.03
2022-11-02T06:48:19.895Z,100746.03
2022-11-02T06:50:51.258Z,100734.78
2022-11-02T06:53:22.643Z,100754.19
2022-11-02T06:55:55.439Z,100754.28
2022-11-02T06:58:27.160Z,100755.19
2022-11-02T07:01:01.126Z,100768.44
2022-11-02T07:03:33.078Z,100768.50
2022-11-02T07:06:08.441Z,100757.78
2022-11-02T07:08:42.735Z,100764.66
2022-11-02T07:11:15.325Z,100758.19
2022-11-02T07:13:47.053Z,100761.53
2022-11-02T07:16:18.388Z,100768.31
2022-11-02T07:18:49.674Z,100762.16
2022-11-02T07:23:57.220Z,100766.31
2022-11-02T07:26:28.559Z,100768.13
2022-11-02T07:28:59.880Z,100767.13
2022-11-02T07:31:32.500Z,100770.53
2022-11-02T07:34:03.809Z,100772.97
2022-11-02T07:36:35.103Z,100768.31
2022-11-02T07:39:07.189Z,100757.69
2022-11-02T07:41:38.496Z,100776.16
2022-11-02T07:44:09.763Z,100767.31
2022-11-02T07:46:41.036Z,100780.59
2022-11-02T07:49:12.683Z,100774.38
2022-11-02T07:51:45.549Z,100785.78
2022-11-02T07:54:16.803Z,100783.00
2022-11-02T07:56:48.263Z,100785.53
2022-11-02T07:59:19.543Z,100786.97
2022-11-02T08:01:50.903Z,100789.13
2022-11-02T08:06:58.731Z,100792.56
2022-11-02T08:09:30.003Z,100793.28
2022-11-02T08:12:01.278Z,100801.00
2022-11-02T08:14:32.607Z,100793.84
2022-11-02T08:17:03.872Z,100798.34
2022-11-02T08:19:35.118Z,100799.25
2022-11-02T08:22:06.423Z,100800.13
2022-11-02T08:24:37.746Z,100809.84
2022-11-02T08:27:09.014Z,100811.50
2022-11-02T08:29:40.304Z,100812.09
2022-11-02T08:32:12.718Z,100808.22
2022-11-02T08:34:43.976Z,100804.56
2022-11-02T08:37:15.365Z,100812.09
2022-11-02T08:39:46.645Z,100823.47
2022-11-02T08:42:17.981Z,100801.03
2022-11-02T08:44:49.246Z,100820.44
2022-11-02T08:47:21.676Z,100822.78
2022-11-02T08:49:52.907Z,100827.03
2022-11-02T08:52:24.188Z,100821.50
2022-11-02T08:54:55.438Z,100829.38
2022-11-02T08:57:26.772Z,100822.22
2022-11-02T08:59:58.168Z,100827.63
2022-11-02T09:02:29.522Z,100848.13
2022-11-02T09:05:00.823Z,100841.09
2022-11-02T09:07:32.130Z,100846.34
2022-11-02T09:10:04.440Z,100840.91
2022-11-02T09:12:35.713Z,100838.16
2022-11-02T09:15:07.547Z,100855.53
2022-11-02T09:17:38.872Z,100867.06
2022-11-02T09:20:10.451Z,100863.44
2022-11-02T09:22:41.947Z,100849.22
2022-11-02T09:25:14.267Z,100852.91
2022-11-02T09:27:45.946Z,100858.13
2022-11-02T09:30:17.226Z,100875.53
2022-11-02T09:33:00.057Z,100866.47
2022-11-02T09:35:34.566Z,100871.72
2022-11-02T09:38:06.462Z,100864.38
2022-11-02T09:40:46.164Z,100870.59
2022-11-02T09:43:34.173Z,100869.78
2022-11-02T09:46:13.118Z,100879.78
2022-11-02T09:48:53.970Z,100872.00
2022-11-02T09:51:35.347Z,100866.91
2022-11-02T09:54:25.175Z,100878.75
2022-11-02T09:57:00.636Z,100867.50
2022-11-02T09:59:32.850Z,100866.81
2022-11-02T10:02:10.290Z,100876.81
2022-11-02T10:05:25.294Z,100878.69
2022-11-02T10:08:07.486Z,100887.63
2022-11-02T10:10:58.489Z,100891.16
2022-11-02T10:13:40.943Z,100899.34
2022-11-02T10:16:21.033Z,100897.81
2022-11-02T10:18:54.384Z,100890.03
2022-11-02T10:21:33.524Z,100903.50
2022-11-02T10:24:37.099Z,100929.78
2022-11-02T10:27:27.062Z,100928.13
2022-11-02T10:30:20.811Z,100935.13
2022-11-02T10:32:55.794Z,100931.00
2022-11-02T10:35:51.483Z,100928.28
2022-11-02T10:39:10.469Z,100933.59
2022-11-02T10:42:10.818Z,100919.63
2022-11-02T10:44:57.904Z,100927.94
2022-11-02T10:47:52.829Z,100929.84
2022-11-02T10:50:36.483Z,100930.16
2022-11-02T10:53:39.470Z,100946.31
2022-11-02T10:56:21.108Z,100952.47
2022-11-02T10:59:10.381Z,100947.75
2022-11-02T11:01:58.736Z,100945.56
2022-11-02T11:04:32.227Z,100953.28
2022-11-02T11:07:06.659Z,100964.50
2022-11-02T11:09:55.994Z,100961.47
2022-11-02T11:12:38.355Z,100969.13
2022-11-02T11:15:48.704Z,100973.78
2022-11-02T11:21:13.232Z,100981.50
2022-11-02T11:23:44.629Z,100974.13
2022-11-02T11:26:31.247Z,100968.53
2022-11-02T11:29:02.473Z,100977.97
2022-11-02T11:31:33.824Z,100986.72
2022-11-02T11:34:06.656Z,100985.94
2022-11-02T11:36:37.947Z,100999.16
2022-11-02T11:39:26.179Z,100990.38
2022-11-02T11:41:58.555Z,100979.84
2022-11-02T11:44:30.585Z,100971.34
2022-11-02T11:47:02.365Z,100986.34
2022-11-02T11:50:03.037Z,101001.31
2022-11-02T11:52:32.350Z,100987.31
2022-11-02T11:55:49.582Z,101006.75
2022-11-02T11:58:29.277Z,101005.16
2022-11-02T12:01:12.612Z,101012.50
2022-11-02T12:03:58.396Z,101010.06
2022-11-02T12:06:49.424Z,101014.50
2022-11-02T12:09:32.619Z,101028.59
2022-11-02T12:12:32.055Z,101034.00
2022-11-02T12:15:21.427Z,101031.44
2022-11-02T12:18:11.178Z,101028.06
2022-11-02T12:21:35.924Z,101031.66
2022-11-02T12:24:25.031Z,101039.53
2022-11-02T12:27:54.041Z,101037.66
2022-11-02T12:30:49.876Z,101043.00
2022-11-02T12:33:23.966Z,101041.31
2022-11-02T12:36:18.304Z,101045.97
2022-11-02T12:39:03.335Z,101039.16
2022-11-02T12:41:58.441Z,101044.63
2022-11-02T12:44:44.954Z,101056.03
2022-11-02T12:47:16.200Z,101045.13
2022-11-02T12:50:04.012Z,101048.50
2022-11-02T12:52:49.602Z,101046.41
2022-11-02T12:55:25.334Z,101054.19
2022-11-02T12:58:05.662Z,101049.41
2022-11-02T13:00:41.247Z,101052.81
2022-11-02T13:03:38.923Z,101050.91
2022-11-02T13:06:15.250Z,101056.16
2022-11-02T13:08:58.116Z,101073.91
2022-11-02T13:11:39.647Z,101077.41
2022-11-02T13:14:18.367Z,101066.63
2022-11-02T13:17:01.590Z,101066.44
2022-11-02T13:19:58.221Z,101081.44
2022-11-02T13:22:40.823Z,101090.16
2022-11-02T13:25:27.456Z,101107.56
2022-11-02T13:28:05.608Z,101102.66
2022-11-02T13:30:40.282Z,101097.22
2022-11-02T13:33:19.878Z,101108.44
2022-11-02T13:35:52.815Z,101112.72
2022-11-02T13:38:32.181Z,101123.34
2022-11-02T13:41:39.069Z,101121.41
2022-11-02T13:44:38.396Z,101121.31
2022-11-02T13:47:58.869Z,101139.00
2022-11-02T13:50:32.897Z,101133.66
2022-11-02T13:53:08.616Z,101137.34
2022-11-02T13:55:46.012Z,101137.38
2022-11-02T13:58:25.965Z,101140.25
2022-11-02T14:01:03.512Z,101134.56
2022-11-02T14:04:01.417Z,101145.50
2022-11-02T14:06:44.391Z,101149.41
2022-11-02T14:09:30.651Z,101153.28
2022-11-02T14:12:11.342Z,101157.88
2022-11-02T14:14:43.093Z,101162.34
2022-11-02T14:17:16.484Z,101161.44
2022-11-02T14:19:47.748Z,101165.72
2022-11-02T14:22:19.403Z,101146.31
2022-11-02T14:24:53.875Z,101162.22
2022-11-02T14:27:25.133Z,101175.38
2022-11-02T14:29:58.056Z,101170.31
2022-11-02T14:32:43.482Z,101161.00
2022-11-02T14:35:40.751Z,101166.66
2022-11-02T14:38:12.075Z,101178.38
2022-11-02T14:40:58.389Z,101181.31
2022-11-02T14:44:11.776Z,101175.34
2022-11-02T14:46:49.268Z,101184.47
2022-11-02T14:49:24.820Z,101191.72
2022-11-02T14:52:20.183Z,101192.75
2022-11-02T14:55:02.149Z,101195.41
2022-11-02T14:57:40.399Z,101195.41
2022-11-02T15:00:22.456Z,101183.81
2022-11-02T15:02:54.064Z,101191.91
2022-11-02T15:05:39.646Z,101193.78
2022-11-02T15:08:13.983Z,101193.09
2022-11-02T15:10:46.021Z,101189.81
2022-11-02T15:13:20.029Z,101185.47
2022-11-02T15:15:51.624Z,101192.72
2022-11-02T15:18:35.648Z,101185.72
2022-11-02T15:21:12.809Z,101188.50
2022-11-02T15:24:16.958Z,101186.91
2022-11-02T15:27:00.706Z,101177.47
2022-11-02T15:29:43.681Z,101190.03
2022-11-02T15:32:23.118Z,101185.84
2022-11-02T15:34:55.605Z,101185.13
2022-11-02T15:37:34.661Z,101183.56
2022-11-02T15:40:46.924Z,101202.41
2022-11-02T15:43:50.430Z,101176.00
2022-11-02T15:46:40.447Z,101192.09
2022-11-02T15:49:42.430Z,101193.19
2022-11-02T15:53:21.112Z,101197.84
2022-11-02T15:56:04.791Z,101206.91
2022-11-02T15:58:47.288Z,101203.59
2022-11-02T16:01:24.381Z,101204.59
2022-11-02T16:04:05.753Z,101200.31
2022-11-02T16:06:40.649Z,101209.34
2022-11-02T16:09:31.951Z,101209.50
2022-11-02T16:12:20.318Z,101206.97
2022-11-02T16:15:01.892Z,101200.03
2022-11-02T16:17:33.215Z,101206.34
2022-11-02T16:20:21.071Z,101205.56
2022-11-02T16:22:59.240Z,101211.88
2022-11-02T16:25:45.416Z,101207.53
2022-11-02T16:28:21.441Z,101216.47
2022-11-02T16:31:19.718Z,101219.19
2022-11-02T16:33:56.080Z,101208.75
2022-11-02T16:36:30.933Z,101215.84
2022-11-02T16:39:07.450Z,101213.22
2022-11-02T16:41:40.670Z,101213.28
2022-11-02T16:44:19.693Z,101208.06
2022-11-02T16:47:15.061Z,101216.94
2022-11-02T16:50:20.138Z,101215.22
2022-11-02T16:52:57.347Z,101222.34
2022-11-02T16:55:37.540Z,101228.56
2022-11-02T16:58:16.322Z,101224.19
2022-11-02T17:01:01.934Z,101226.00
2022-11-02T17:03:34.472Z,101218.97
2022-11-02T17:06:07.596Z,101221.63
2022-11-02T17:08:40.322Z,101209.34
2022-11-02T17:11:17.064Z,101216.44
2022-11-02T17:13:54.866Z,101223.50
2022-11-02T17:16:26.151Z,101238.53
2022-11-02T17:18:57.414Z,101230.59
2022-11-02T17:21:29.590Z,101220.03
2022-11-02T17:24:31.418Z,101237.69
2022-11-02T17:27:21.676Z,101242.13
2022-11-02T17:29:54.753Z,101230.66
2022-11-02T17:32:26.795Z,101243.03
2022-11-02T17:34:58.746Z,101246.56
2022-11-02T17:37:31.824Z,101229.81
2022-11-02T17:40:03.592Z,101243.91
2022-11-02T17:42:54.338Z,101244.81
2022-11-02T17:45:33.624Z,101246.59
2022-11-02T17:48:07.127Z,101256.28
2022-11-02T17:50:40.942Z,101236.91
2022-11-02T17:53:13.600Z,101254.53
2022-11-02T17:55:44.883Z,101255.41
2022-11-02T17:58:16.932Z,101235.16
2022-11-02T18:00:48.382Z,101249.25
2022-11-02T18:03:25.436Z,101241.31
2022-11-02T18:06:00.626Z,101250.13
2022-11-02T18:08:52.292Z,101248.38
2022-11-02T18:11:26.477Z,101255.44
2022-11-02T18:13:57.911Z,101252.78
2022-11-02T18:16:29.334Z,101250.13
2022-11-02T18:19:00.602Z,101248.38
2022-11-02T18:21:31.845Z,101248.38
2022-11-02T18:24:03.325Z,101247.50
2022-11-02T18:26:35.582Z,101251.00
2022-11-02T18:29:06.930Z,101233.38
2022-11-02T18:31:38.173Z,101244.84
2022-11-02T18:34:10.444Z,101233.38
2022-11-02T18:36:42.068Z,101234.25
2022-11-02T18:39:13.341Z,101239.53
2022-11-02T18:41:44.724Z,101243.94
2022-11-02T18:44:16.047Z,101238.66
2022-11-02T18:46:47.929Z,101235.13
2022-11-02T18:49:19.258Z,101242.19
2022-11-02T18:51:51.397Z,101240.41
2022-11-02T18:54:23.021Z,101234.25
2022-11-02T18:56:54.864Z,101218.38
2022-11-02T18:59:26.387Z,101236.00
2022-11-02T19:01:57.811Z,101232.47
2022-11-02T19:04:29.914Z,101221.88
2022-11-02T19:07:19.812Z,101231.56
2022-11-02T19:09:51.324Z,101238.63
2022-11-02T19:12:24.999Z,101221.88
2022-11-02T19:14:56.569Z,101221.00
2022-11-02T19:17:28.212Z,101222.75
2022-11-02T19:19:59.492Z,101226.28
2022-11-02T19:22:30.937Z,101221.84
2022-11-02T19:25:02.279Z,101231.56
2022-11-02T19:27:33.644Z,101230.66
2022-11-02T19:30:05.465Z,101225.38
2022-11-02T19:32:36.724Z,101231.53
2022-11-02T19:35:08.095Z,101225.38
2022-11-02T19:37:39.476Z,101222.72
2022-11-02T19:40:11.164Z,101216.53
2022-11-02T19:42:42.494Z,101225.34
2022-11-02T19:45:32.100Z,101227.97
2022-11-02T19:48:03.825Z,101221.81
2022-11-02T19:50:35.307Z,101225.31
2022-11-02T19:53:06.588Z,101225.31
2022-11-02T19:55:37.843Z,101215.63
2022-11-02T19:58:09.200Z,101216.50
2022-11-02T20:00:40.449Z,101215.63
2022-11-02T20:03:11.805Z,101214.75
2022-11-02T20:05:46.971Z,101217.38
2022-11-02T20:08:18.313Z,101216.50
2022-11-02T20:10:49.667Z,101217.38
2022-11-02T20:13:20.964Z,101214.75
2022-11-02T20:15:56.000Z,101212.09
2022-11-02T20:18:27.503Z,101206.81
2022-11-02T20:21:16.381Z,101207.69
2022-11-02T20:23:48.696Z,101201.53
2022-11-02T20:26:26.175Z,101206.81
2022-11-02T20:28:59.372Z,101197.13
2022-11-02T20:31:37.253Z,101196.25
2022-11-02T20:34:09.099Z,101183.91
2022-11-02T20:36:41.197Z,101195.38
2022-11-02T20:39:13.296Z,101189.22
2022-11-02T20:41:44.651Z,101186.59
2022-11-02T20:44:18.278Z,101177.78
2022-11-02T20:46:53.071Z,101159.28
2022-11-02T20:49:49.400Z,101163.72
2022-11-02T20:52:19.081Z,101155.78
2022-11-02T20:54:50.490Z,101171.66
2022-11-02T20:57:23.020Z,101162.84
2022-11-02T20:59:55.047Z,101164.59
2022-11-02T21:02:26.400Z,101165.50
2022-11-02T21:04:57.690Z,101160.22
2022-11-02T21:07:28.986Z,101154.91
2022-11-02T21:10:00.255Z,101169.00
2022-11-02T21:12:50.031Z,101163.72
2022-11-02T21:15:21.439Z,101165.50
2022-11-02T21:17:52.689Z,101163.72
2022-11-02T21:20:39.222Z,101166.38
2022-11-02T21:23:11.082Z,101131.16
2022-11-02T21:25:42.352Z,101155.81
2022-11-02T21:28:13.768Z,101154.94
2022-11-02T21:30:45.051Z,101161.97
2022-11-02T21:33:16.334Z,101161.09
2022-11-02T21:35:48.180Z,101154.94
2022-11-02T21:38:19.594Z,101160.22
2022-11-02T21:40:51.040Z,101147.91
2022-11-02T21:43:22.302Z,101154.94
2022-11-02T21:46:01.219Z,101148.78
2022-11-02T21:48:34.814Z,101140.88
2022-11-02T21:51:13.369Z,101133.81
2022-11-02T21:53:46.264Z,101134.69
2022-11-02T21:56:20.591Z,101128.53
2022-11-02T21:58:53.169Z,101117.97
2022-11-02T22:01:45.675Z,101125.91
2022-11-02T22:04:24.739Z,101127.66
2022-11-02T22:06:56.479Z,101115.31
2022-11-02T22:09:28.771Z,101110.03
2022-11-02T22:12:18.600Z,101112.69
2022-11-02T22:14:49.855Z,101117.09
2022-11-02T22:17:49.195Z,101121.50
2022-11-02T22:20:12.351Z,101111.81
2022-11-02T22:22:43.640Z,101117.97
2022-11-02T22:25:15.002Z,101112.69
2022-11-02T22:27:46.248Z,101116.19
2022-11-02T22:30:17.627Z,101118.84
2022-11-02T22:32:48.893Z,101109.16
2022-11-02T22:35:20.286Z,101106.50
2022-11-02T22:38:10.034Z,101110.03
2022-11-02T22:40:41.281Z,101110.91
2022-11-02T22:43:12.532Z,101102.09
2022-11-02T22:45:43.781Z,101105.63
2022-11-02T22:48:15.090Z,101097.69
2022-11-02T22:50:46.408Z,101104.75
2022-11-02T22:53:17.676Z,101102.09
2022-11-02T22:56:11.931Z,101102.09
2022-11-02T22:58:45.490Z,101096.81
2022-11-02T23:01:22.337Z,101077.44
2022-11-02T23:03:53.884Z,101084.50
2022-11-02T23:06:25.899Z,101077.44
2022-11-02T23:08:58.622Z,101084.50
2022-11-02T23:11:33.157Z,101086.25
2022-11-02T23:14:07.120Z,101080.09
2022-11-02T23:16:42.007Z,101077.44
2022-11-02T23:19:29.658Z,101077.44
2022-11-02T23:22:48.148Z,101063.38
2022-11-02T23:25:19.431Z,101069.53
2022-11-02T23:28:12.121Z,101065.13
2022-11-02T23:31:02.483Z,101039.59
2022-11-02T23:33:36.270Z,101052.81
2022-11-02T23:36:11.437Z,101053.69
2022-11-02T23:39:03.489Z,101046.63
2022-11-02T23:41:38.492Z,101043.13
2022-11-02T23:44:13.816Z,101046.63
2022-11-02T23:46:48.411Z,101030.78
2022-11-02T23:49:19.820Z,101036.94
2022-11-02T23:52:09.922Z,101035.19
2022-11-02T23:54:59.750Z,101032.53
2022-11-02T23:57:31.069Z,101021.09
